METAR Data
IDs: Format: Raw Decoded Include TAF

Data at: 2031 UTC 25 Sep 2020

KATW 251945Z 20016G20KT 10SM SCT120 25/08 A2982
KATW 251845Z 20015G21KT 10SM SCT120 24/08 A2985
KATW 251745Z 19017KT 10SM SCT120 24/08 A2987
KATW 251645Z 19013G19KT 10SM SCT045 23/09 A2989
KATW 251545Z 20010G16KT 10SM SCT045 22/10 A2991
KATW 251445Z 21012KT 10SM SCT045 20/11 A2992
KATW 251345Z 22010KT 10SM SCT045 18/11 A2992
KATW 251245Z 21007KT 10SM SCT045 16/13 A2991
KATW 251145Z 21007KT 10SM SCT045 15/13 A2989
KATW 251045Z 22007KT 10SM BKN045 16/14 A2990
KATW 251020Z 22007KT 10SM BKN045 16/15 A2989 RMK FIRST
KATW 251015Z AUTO 22007KT 10SM SCT047 15/14 A2990 RMK AO2
KATW 250955Z AUTO 21008KT 10SM CLR 15/14 A2989 RMK AO2
KATW 250935Z AUTO 21006KT 10SM CLR 15/15 A2989 RMK AO2
KATW 250915Z AUTO 21006KT 10SM SCT049 SCT060 15/15 A2988 RMK AO2
KATW 250855Z AUTO 20006KT 10SM OVC047 15/15 A2988 RMK AO2
KATW 250835Z AUTO 19005KT 10SM BKN045 15/15 A2987 RMK AO2
KATW 250815Z AUTO 20004KT 10SM CLR 15/15 A2987 RMK AO2
KATW 250755Z AUTO 20004KT 10SM CLR 15/15 A2987 RMK AO2
KATW 250735Z AUTO 19005KT 10SM CLR 15/15 A2987 RMK AO2
KATW 250715Z AUTO 18005KT 7SM SCT003 16/16 A2987 RMK AO2
KATW 250655Z AUTO 17004KT 1/4SM FG OVC001 15/15 A2988 RMK AO2
KATW 250635Z AUTO 15003KT M1/4SM FG OVC001 16/16 A2987 RMK AO2
KATW 250615Z AUTO 00000KT M1/4SM FG OVC001 16/16 A2987 RMK AO2
KATW 250555Z AUTO 00000KT M1/4SM FG OVC001 16/16 A2987 RMK AO2 P0001
KATW 250535Z AUTO 00000KT 1/2SM FG OVC003 16/16 A2988 RMK AO2 P0001
KATW 250515Z AUTO 00000KT 1SM BR OVC003 16/16 A2988 RMK AO2
KATW 250455Z AUTO 00000KT 1SM BR BKN003 OVC041 16/16 A2988 RMK AO2
KATW 250435Z AUTO 00000KT 2 1/2SM BR SCT002 BKN039 OVC060 17/17 A2988 RMK AO2
KATW 250415Z AUTO 01003KT 4SM BR SCT002 OVC037 17/17 A2988 RMK AO2
KATW 250355Z AUTO 00000KT 5SM BR BKN002 OVC039 17/17 A2988 RMK AO2
KATW 250345Z VRB03KT 5SM -RA BR BKN015 OVC030 17/17 A2989 RMK LAST
KATW 250245Z VRB03KT 4SM -RA BR BKN020 OVC040 17/17 A2989
KATW 250145Z VRB03KT 10SM BKN020 OVC040 18/17 A2989
KATW 242345Z VRB03KT 10SM BKN030 OVC090 18/17 A2987
KATW 242245Z COR 22006KT 10SM BKN050 OVC090 19/14 A2987
KATW 242145Z 21006KT 10SM SCT060 OVC095 22/15 A2985
KATW 242045Z VRB05KT 10SM -DZ SCT060 OVC095 21/13 A2984
KATW 241945Z VRB05KT 10SM SCT020 OVC120 21/12 A2986
KATW 241845Z VRB05KT 10SM SCT020 OVC120 21/12 A2987
KATW 241745Z VRB04KT 10SM SCT020 BKN120 21/13 A2988
KATW 241645Z VRB04KT 10SM SCT012 BKN100 19/13 A2989
KATW 241545Z VRB03KT 10SM SCT012 BKN100 19/12 A2990
KATW 241445Z 00000KT 10SM SCT012 BKN100 18/12 A2991
KATW 241345Z 36003KT 10SM SCT045 BKN100 17/13 A2990
KATW 241245Z 00000KT 10SM SCT045 BKN100 15/14 A2991
KATW 241145Z 00000KT 10SM BKN045 BKN100 15/14 A2992
KATW 241045Z 00000KT 10SM BKN045 BKN100 15/14 A2992
KATW 241020Z 01004KT 10SM BKN045 BKN100 15/14 A2992 RMK FIRST
KATW 241015Z AUTO 02004KT 10SM BKN050 BKN120 15/12 A2990 RMK AO2
KATW 240955Z AUTO 18003KT 10SM SCT110 14/12 A2989 RMK AO2
KATW 240935Z AUTO 17003KT 10SM CLR 14/12 A2989 RMK AO2
KATW 240915Z AUTO 12003KT 10SM CLR 14/11 A2989 RMK AO2
KATW 240855Z AUTO 00000KT 10SM CLR 15/11 A2989 RMK AO2
KATW 240835Z AUTO 00000KT 10SM CLR 14/10 A2989 RMK AO2 LTG DSNT NW